sensor_id;sensor_type;location;lat;lon;timestamp;temperature;humidity
30037;DHT22;36325;51.512;-0.382;2023-12-20T00:00:23;5.70;99.90
30037;DHT22;36325;51.512;-0.382;2023-12-20T00:02:51;5.70;99.90
30037;DHT22;36325;51.512;-0.382;2023-12-20T00:05:19;5.60;99.90
30037;DHT22;36325;51.512;-0.382;2023-12-20T00:07:46;5.60;99.90
30037;DHT22;36325;51.512;-0.382;2023-12-20T00:10:14;5.60;99.90
30037;DHT22;36325;51.512;-0.382;2023-12-20T00:12:41;5.60;99.90
30037;DHT22;36325;51.512;-0.382;2023-12-20T00:15:09;5.60;99.90
30037;DHT22;36325;51.512;-0.382;2023-12-20T00:17:36;5.60;99.90
30037;DHT22;36325;51.512;-0.382;2023-12-20T00:20:05;5.60;99.90
30037;DHT22;36325;51.512;-0.382;2023-12-20T00:22:35;5.60;99.90
30037;DHT22;36325;51.512;-0.382;2023-12-20T00:25:03;5.60;99.90
30037;DHT22;36325;51.512;-0.382;2023-12-20T00:27:30;5.60;99.90
30037;DHT22;36325;51.512;-0.382;2023-12-20T00:29:57;5.60;99.90
30037;DHT22;36325;51.512;-0.382;2023-12-20T00:32:24;5.60;99.90
30037;DHT22;36325;51.512;-0.382;2023-12-20T00:34:52;5.60;99.90
30037;DHT22;36325;51.512;-0.382;2023-12-20T00:37:19;5.60;99.90
30037;DHT22;36325;51.512;-0.382;2023-12-20T00:39:47;5.70;99.90
30037;DHT22;36325;51.512;-0.382;2023-12-20T00:42:15;4.00;99.90
30037;DHT22;36325;51.512;-0.382;2023-12-20T00:44:42;5.70;99.90
30037;DHT22;36325;51.512;-0.382;2023-12-20T00:47:09;5.70;99.90
30037;DHT22;36325;51.512;-0.382;2023-12-20T00:49:37;5.80;99.90
30037;DHT22;36325;51.512;-0.382;2023-12-20T00:52:05;5.80;99.90
30037;DHT22;36325;51.512;-0.382;2023-12-20T00:54:33;5.80;99.90
30037;DHT22;36325;51.512;-0.382;2023-12-20T00:57:02;5.80;99.90
30037;DHT22;36325;51.512;-0.382;2023-12-20T00:59:29;5.80;99.90
30037;DHT22;36325;51.512;-0.382;2023-12-20T01:01:57;5.80;99.90
30037;DHT22;36325;51.512;-0.382;2023-12-20T01:04:25;5.80;99.90
30037;DHT22;36325;51.512;-0.382;2023-12-20T01:06:52;5.70;99.90
30037;DHT22;36325;51.512;-0.382;2023-12-20T01:09:19;5.80;99.90
30037;DHT22;36325;51.512;-0.382;2023-12-20T01:11:47;5.80;99.90
30037;DHT22;36325;51.512;-0.382;2023-12-20T01:14:14;5.70;99.90
30037;DHT22;36325;51.512;-0.382;2023-12-20T01:16:41;5.70;99.90
30037;DHT22;36325;51.512;-0.382;2023-12-20T01:19:08;5.80;99.90
30037;DHT22;36325;51.512;-0.382;2023-12-20T01:21:35;5.80;99.90
30037;DHT22;36325;51.512;-0.382;2023-12-20T01:24:03;5.80;99.90
30037;DHT22;36325;51.512;-0.382;2023-12-20T01:26:30;5.80;99.90
30037;DHT22;36325;51.512;-0.382;2023-12-20T01:28:58;6.90;99.90
30037;DHT22;36325;51.512;-0.382;2023-12-20T01:31:26;5.80;99.90
30037;DHT22;36325;51.512;-0.382;2023-12-20T01:33:55;5.90;99.90
30037;DHT22;36325;51.512;-0.382;2023-12-20T01:36:22;5.90;99.90
30037;DHT22;36325;51.512;-0.382;2023-12-20T01:38:50;5.90;99.90
30037;DHT22;36325;51.512;-0.382;2023-12-20T01:41:17;5.90;99.90
30037;DHT22;36325;51.512;-0.382;2023-12-20T01:43:45;6.00;99.90
30037;DHT22;36325;51.512;-0.382;2023-12-20T01:46:16;6.00;99.90
30037;DHT22;36325;51.512;-0.382;2023-12-20T01:48:44;6.00;99.90
30037;DHT22;36325;51.512;-0.382;2023-12-20T01:51:12;6.10;99.90
30037;DHT22;36325;51.512;-0.382;2023-12-20T01:53:40;6.10;99.90
30037;DHT22;36325;51.512;-0.382;2023-12-20T01:56:08;6.20;99.90
30037;DHT22;36325;51.512;-0.382;2023-12-20T01:58:40;6.20;99.90
30037;DHT22;36325;51.512;-0.382;2023-12-20T02:01:10;6.20;99.90
30037;DHT22;36325;51.512;-0.382;2023-12-20T02:03:37;6.20;99.90
30037;DHT22;36325;51.512;-0.382;2023-12-20T02:06:04;6.20;99.90
30037;DHT22;36325;51.512;-0.382;2023-12-20T02:08:32;6.20;99.90
30037;DHT22;36325;51.512;-0.382;2023-12-20T02:10:59;6.20;99.90
30037;DHT22;36325;51.512;-0.382;2023-12-20T02:13:27;6.20;99.90
30037;DHT22;36325;51.512;-0.382;2023-12-20T02:15:54;6.20;99.90
30037;DHT22;36325;51.512;-0.382;2023-12-20T02:18:21;6.20;99.90
30037;DHT22;36325;51.512;-0.382;2023-12-20T02:20:49;6.20;99.90
30037;DHT22;36325;51.512;-0.382;2023-12-20T02:23:16;6.10;99.90
30037;DHT22;36325;51.512;-0.382;2023-12-20T02:25:43;6.10;99.90
30037;DHT22;36325;51.512;-0.382;2023-12-20T02:28:11;6.20;99.90
30037;DHT22;36325;51.512;-0.382;2023-12-20T02:30:38;6.10;99.90
30037;DHT22;36325;51.512;-0.382;2023-12-20T02:33:07;6.10;99.90
30037;DHT22;36325;51.512;-0.382;2023-12-20T02:35:35;6.10;99.90
30037;DHT22;36325;51.512;-0.382;2023-12-20T02:38:05;6.10;99.90
30037;DHT22;36325;51.512;-0.382;2023-12-20T02:40:32;6.10;99.90
30037;DHT22;36325;51.512;-0.382;2023-12-20T02:43:00;6.10;99.90
30037;DHT22;36325;51.512;-0.382;2023-12-20T02:45:27;6.10;99.90
30037;DHT22;36325;51.512;-0.382;2023-12-20T02:47:54;6.10;99.90
30037;DHT22;36325;51.512;-0.382;2023-12-20T02:50:22;6.00;99.90
30037;DHT22;36325;51.512;-0.382;2023-12-20T02:52:49;6.00;99.90
30037;DHT22;36325;51.512;-0.382;2023-12-20T02:55:17;6.00;99.90
30037;DHT22;36325;51.512;-0.382;2023-12-20T02:57:44;6.00;99.90
30037;DHT22;36325;51.512;-0.382;2023-12-20T03:00:13;6.00;99.90
30037;DHT22;36325;51.512;-0.382;2023-12-20T03:02:40;6.00;99.90
30037;DHT22;36325;51.512;-0.382;2023-12-20T03:05:08;6.00;99.90
30037;DHT22;36325;51.512;-0.382;2023-12-20T03:07:36;6.00;99.90
30037;DHT22;36325;51.512;-0.382;2023-12-20T03:10:04;6.40;99.90
30037;DHT22;36325;51.512;-0.382;2023-12-20T03:12:37;6.00;99.90
30037;DHT22;36325;51.512;-0.382;2023-12-20T03:15:05;6.00;99.90
30037;DHT22;36325;51.512;-0.382;2023-12-20T03:17:32;6.00;99.90
30037;DHT22;36325;51.512;-0.382;2023-12-20T03:20:03;6.00;99.90
30037;DHT22;36325;51.512;-0.382;2023-12-20T03:22:31;6.00;99.90
30037;DHT22;36325;51.512;-0.382;2023-12-20T03:24:58;6.00;99.90
30037;DHT22;36325;51.512;-0.382;2023-12-20T03:27:26;6.00;99.90
30037;DHT22;36325;51.512;-0.382;2023-12-20T03:29:54;6.10;99.90
30037;DHT22;36325;51.512;-0.382;2023-12-20T03:32:22;6.00;99.90
30037;DHT22;36325;51.512;-0.382;2023-12-20T03:34:49;6.00;99.90
30037;DHT22;36325;51.512;-0.382;2023-12-20T03:37:17;6.00;99.90
30037;DHT22;36325;51.512;-0.382;2023-12-20T03:39:44;6.00;99.90
30037;DHT22;36325;51.512;-0.382;2023-12-20T03:42:11;6.00;99.90
30037;DHT22;36325;51.512;-0.382;2023-12-20T03:44:40;6.00;99.90
30037;DHT22;36325;51.512;-0.382;2023-12-20T03:47:08;6.10;99.90
30037;DHT22;36325;51.512;-0.382;2023-12-20T03:49:35;6.00;99.90
30037;DHT22;36325;51.512;-0.382;2023-12-20T03:52:07;6.10;99.90
30037;DHT22;36325;51.512;-0.382;2023-12-20T03:54:35;6.10;99.90
30037;DHT22;36325;51.512;-0.382;2023-12-20T03:57:02;6.10;99.90
30037;DHT22;36325;51.512;-0.382;2023-12-20T03:59:34;6.10;99.90
30037;DHT22;36325;51.512;-0.382;2023-12-20T04:02:01;6.10;99.90
30037;DHT22;36325;51.512;-0.382;2023-12-20T04:04:28;6.10;99.90
30037;DHT22;36325;51.512;-0.382;2023-12-20T04:06:56;4.70;99.90
30037;DHT22;36325;51.512;-0.382;2023-12-20T04:09:23;6.10;99.90
30037;DHT22;36325;51.512;-0.382;2023-12-20T04:11:50;6.10;99.90
30037;DHT22;36325;51.512;-0.382;2023-12-20T04:14:17;5.70;99.90
30037;DHT22;36325;51.512;-0.382;2023-12-20T04:16:45;6.00;99.90
30037;DHT22;36325;51.512;-0.382;2023-12-20T04:19:13;6.00;99.90
30037;DHT22;36325;51.512;-0.382;2023-12-20T04:21:40;6.00;99.90
30037;DHT22;36325;51.512;-0.382;2023-12-20T04:24:08;6.00;99.90
30037;DHT22;36325;51.512;-0.382;2023-12-20T04:26:35;6.00;99.90
30037;DHT22;36325;51.512;-0.382;2023-12-20T04:29:03;6.00;99.90
30037;DHT22;36325;51.512;-0.382;2023-12-20T04:31:30;5.90;99.90
30037;DHT22;36325;51.512;-0.382;2023-12-20T04:33:58;6.00;99.90
30037;DHT22;36325;51.512;-0.382;2023-12-20T04:36:26;6.00;99.90
30037;DHT22;36325;51.512;-0.382;2023-12-20T04:38:53;6.00;99.90
30037;DHT22;36325;51.512;-0.382;2023-12-20T04:41:21;5.90;99.90
30037;DHT22;36325;51.512;-0.382;2023-12-20T04:43:49;5.90;99.90
30037;DHT22;36325;51.512;-0.382;2023-12-20T04:46:16;5.90;99.90
30037;DHT22;36325;51.512;-0.382;2023-12-20T04:48:43;5.90;99.90
30037;DHT22;36325;51.512;-0.382;2023-12-20T04:51:11;5.90;99.90
30037;DHT22;36325;51.512;-0.382;2023-12-20T04:53:38;5.90;99.90
30037;DHT22;36325;51.512;-0.382;2023-12-20T04:56:06;5.90;99.90
30037;DHT22;36325;51.512;-0.382;2023-12-20T04:58:33;5.90;99.90
30037;DHT22;36325;51.512;-0.382;2023-12-20T05:01:01;5.90;99.90
30037;DHT22;36325;51.512;-0.382;2023-12-20T05:03:28;5.90;99.90
30037;DHT22;36325;51.512;-0.382;2023-12-20T05:05:56;5.90;99.90
30037;DHT22;36325;51.512;-0.382;2023-12-20T05:08:23;5.90;99.90
30037;DHT22;36325;51.512;-0.382;2023-12-20T05:10:51;5.90;99.90
30037;DHT22;36325;51.512;-0.382;2023-12-20T05:13:18;5.90;99.90
30037;DHT22;36325;51.512;-0.382;2023-12-20T05:15:46;6.00;99.90
30037;DHT22;36325;51.512;-0.382;2023-12-20T05:18:14;6.00;99.90
30037;DHT22;36325;51.512;-0.382;2023-12-20T05:20:42;6.00;99.90
30037;DHT22;36325;51.512;-0.382;2023-12-20T05:23:13;6.00;99.90
30037;DHT22;36325;51.512;-0.382;2023-12-20T05:25:41;6.00;99.90
30037;DHT22;36325;51.512;-0.382;2023-12-20T05:28:09;6.00;99.90
30037;DHT22;36325;51.512;-0.382;2023-12-20T05:30:36;6.10;99.90
30037;DHT22;36325;51.512;-0.382;2023-12-20T05:33:04;6.00;99.90
30037;DHT22;36325;51.512;-0.382;2023-12-20T05:35:32;6.10;99.90
30037;DHT22;36325;51.512;-0.382;2023-12-20T05:37:59;6.10;99.90
30037;DHT22;36325;51.512;-0.382;2023-12-20T05:40:28;6.10;99.90
30037;DHT22;36325;51.512;-0.382;2023-12-20T05:42:55;6.10;99.90
30037;DHT22;36325;51.512;-0.382;2023-12-20T05:45:23;6.10;99.90
30037;DHT22;36325;51.512;-0.382;2023-12-20T05:47:51;6.10;99.90
30037;DHT22;36325;51.512;-0.382;2023-12-20T05:50:18;6.20;99.90
30037;DHT22;36325;51.512;-0.382;2023-12-20T05:52:46;6.20;99.90
30037;DHT22;36325;51.512;-0.382;2023-12-20T05:55:13;6.20;99.90
30037;DHT22;36325;51.512;-0.382;2023-12-20T05:57:42;6.20;99.90
30037;DHT22;36325;51.512;-0.382;2023-12-20T06:00:10;6.20;99.90
30037;DHT22;36325;51.512;-0.382;2023-12-20T06:02:40;6.30;99.90
30037;DHT22;36325;51.512;-0.382;2023-12-20T06:05:07;6.30;99.90
30037;DHT22;36325;51.512;-0.382;2023-12-20T06:07:34;5.60;99.90
30037;DHT22;36325;51.512;-0.382;2023-12-20T06:10:02;6.40;99.90
30037;DHT22;36325;51.512;-0.382;2023-12-20T06:12:29;6.40;99.90
30037;DHT22;36325;51.512;-0.382;2023-12-20T06:14:59;6.40;99.90
30037;DHT22;36325;51.512;-0.382;2023-12-20T06:17:26;6.50;99.90
30037;DHT22;36325;51.512;-0.382;2023-12-20T06:19:53;6.50;99.90
30037;DHT22;36325;51.512;-0.382;2023-12-20T06:22:21;6.50;99.90
30037;DHT22;36325;51.512;-0.382;2023-12-20T06:24:48;6.60;99.90
30037;DHT22;36325;51.512;-0.382;2023-12-20T06:27:15;6.60;99.90
30037;DHT22;36325;51.512;-0.382;2023-12-20T06:29:43;6.60;99.90
30037;DHT22;36325;51.512;-0.382;2023-12-20T06:32:11;6.60;99.90
30037;DHT22;36325;51.512;-0.382;2023-12-20T06:34:39;6.60;99.90
30037;DHT22;36325;51.512;-0.382;2023-12-20T06:37:07;6.60;99.90
30037;DHT22;36325;51.512;-0.382;2023-12-20T06:39:35;6.60;99.90
30037;DHT22;36325;51.512;-0.382;2023-12-20T06:42:03;6.60;99.90
30037;DHT22;36325;51.512;-0.382;2023-12-20T06:44:30;6.60;99.90
30037;DHT22;36325;51.512;-0.382;2023-12-20T06:46:58;6.60;99.90
30037;DHT22;36325;51.512;-0.382;2023-12-20T06:49:25;6.70;99.90
30037;DHT22;36325;51.512;-0.382;2023-12-20T06:51:53;6.70;99.90
30037;DHT22;36325;51.512;-0.382;2023-12-20T06:54:20;6.70;99.90
30037;DHT22;36325;51.512;-0.382;2023-12-20T06:56:48;6.70;99.90
30037;DHT22;36325;51.512;-0.382;2023-12-20T06:59:15;6.80;99.90
30037;DHT22;36325;51.512;-0.382;2023-12-20T07:01:45;6.80;99.90
30037;DHT22;36325;51.512;-0.382;2023-12-20T07:04:15;6.80;99.90
30037;DHT22;36325;51.512;-0.382;2023-12-20T07:06:43;6.80;99.90
30037;DHT22;36325;51.512;-0.382;2023-12-20T07:09:10;6.80;99.90
30037;DHT22;36325;51.512;-0.382;2023-12-20T07:11:40;6.80;99.90
30037;DHT22;36325;51.512;-0.382;2023-12-20T07:14:07;6.80;99.90
30037;DHT22;36325;51.512;-0.382;2023-12-20T07:16:35;6.80;99.90
30037;DHT22;36325;51.512;-0.382;2023-12-20T07:19:03;6.90;99.90
30037;DHT22;36325;51.512;-0.382;2023-12-20T07:21:30;6.80;99.90
30037;DHT22;36325;51.512;-0.382;2023-12-20T07:23:58;6.90;99.90
30037;DHT22;36325;51.512;-0.382;2023-12-20T07:26:25;6.90;99.90
30037;DHT22;36325;51.512;-0.382;2023-12-20T07:28:53;6.90;99.90
30037;DHT22;36325;51.512;-0.382;2023-12-20T07:31:20;6.90;99.90
30037;DHT22;36325;51.512;-0.382;2023-12-20T07:33:47;6.90;99.90
30037;DHT22;36325;51.512;-0.382;2023-12-20T07:36:15;6.90;99.90
30037;DHT22;36325;51.512;-0.382;2023-12-20T07:38:42;7.00;99.90
30037;DHT22;36325;51.512;-0.382;2023-12-20T07:41:11;7.00;99.90
30037;DHT22;36325;51.512;-0.382;2023-12-20T07:43:38;7.00;99.90
30037;DHT22;36325;51.512;-0.382;2023-12-20T07:46:06;7.00;99.90
30037;DHT22;36325;51.512;-0.382;2023-12-20T07:48:37;7.10;99.90
30037;DHT22;36325;51.512;-0.382;2023-12-20T07:51:04;7.10;99.90
30037;DHT22;36325;51.512;-0.382;2023-12-20T07:53:37;7.10;99.90
30037;DHT22;36325;51.512;-0.382;2023-12-20T07:56:17;7.20;99.90
30037;DHT22;36325;51.512;-0.382;2023-12-20T07:58:44;7.20;99.90
30037;DHT22;36325;51.512;-0.382;2023-12-20T08:01:18;7.20;99.90
30037;DHT22;36325;51.512;-0.382;2023-12-20T08:03:46;7.30;99.90
30037;DHT22;36325;51.512;-0.382;2023-12-20T08:06:15;7.30;99.90
30037;DHT22;36325;51.512;-0.382;2023-12-20T08:08:44;7.30;99.90
30037;DHT22;36325;51.512;-0.382;2023-12-20T08:11:15;7.40;99.90
30037;DHT22;36325;51.512;-0.382;2023-12-20T08:13:44;7.40;99.90
30037;DHT22;36325;51.512;-0.382;2023-12-20T08:16:11;7.50;99.90
30037;DHT22;36325;51.512;-0.382;2023-12-20T08:18:40;7.40;99.90
30037;DHT22;36325;51.512;-0.382;2023-12-20T08:21:08;7.50;99.90
30037;DHT22;36325;51.512;-0.382;2023-12-20T08:23:36;7.60;99.90
30037;DHT22;36325;51.512;-0.382;2023-12-20T08:26:05;7.60;99.90
30037;DHT22;36325;51.512;-0.382;2023-12-20T08:28:32;7.70;99.90
30037;DHT22;36325;51.512;-0.382;2023-12-20T08:31:00;7.70;99.90
30037;DHT22;36325;51.512;-0.382;2023-12-20T08:33:28;7.70;99.90
30037;DHT22;36325;51.512;-0.382;2023-12-20T08:35:55;7.80;99.90
30037;DHT22;36325;51.512;-0.382;2023-12-20T08:38:22;7.70;99.90
30037;DHT22;36325;51.512;-0.382;2023-12-20T08:40:49;7.80;99.90
30037;DHT22;36325;51.512;-0.382;2023-12-20T08:43:16;7.80;99.90
30037;DHT22;36325;51.512;-0.382;2023-12-20T08:45:44;7.80;99.90
30037;DHT22;36325;51.512;-0.382;2023-12-20T08:48:12;7.90;99.90
30037;DHT22;36325;51.512;-0.382;2023-12-20T08:50:39;7.90;99.90
30037;DHT22;36325;51.512;-0.382;2023-12-20T08:53:06;7.90;99.90
30037;DHT22;36325;51.512;-0.382;2023-12-20T08:55:33;8.00;99.90
30037;DHT22;36325;51.512;-0.382;2023-12-20T08:58:01;7.90;99.90
30037;DHT22;36325;51.512;-0.382;2023-12-20T09:00:28;8.00;99.90
30037;DHT22;36325;51.512;-0.382;2023-12-20T09:02:56;8.10;99.90
30037;DHT22;36325;51.512;-0.382;2023-12-20T09:05:23;6.70;99.90
30037;DHT22;36325;51.512;-0.382;2023-12-20T09:07:51;8.10;99.90
30037;DHT22;36325;51.512;-0.382;2023-12-20T09:10:18;8.20;99.90
30037;DHT22;36325;51.512;-0.382;2023-12-20T09:12:50;8.20;99.90
30037;DHT22;36325;51.512;-0.382;2023-12-20T09:15:17;8.30;99.90
30037;DHT22;36325;51.512;-0.382;2023-12-20T09:17:44;7.70;99.90
30037;DHT22;36325;51.512;-0.382;2023-12-20T09:20:15;8.40;99.90
30037;DHT22;36325;51.512;-0.382;2023-12-20T09:22:42;8.40;99.90
30037;DHT22;36325;51.512;-0.382;2023-12-20T09:25:10;8.50;99.90
30037;DHT22;36325;51.512;-0.382;2023-12-20T09:27:38;8.50;99.90
30037;DHT22;36325;51.512;-0.382;2023-12-20T09:30:05;8.70;99.90
30037;DHT22;36325;51.512;-0.382;2023-12-20T09:32:32;8.80;99.90
30037;DHT22;36325;51.512;-0.382;2023-12-20T09:35:00;10.20;99.90
30037;DHT22;36325;51.512;-0.382;2023-12-20T09:37:28;9.00;99.90
30037;DHT22;36325;51.512;-0.382;2023-12-20T09:39:59;9.10;99.90
30037;DHT22;36325;51.512;-0.382;2023-12-20T09:45:13;9.20;99.90
30037;DHT22;36325;51.512;-0.382;2023-12-20T09:47:43;9.30;99.90
30037;DHT22;36325;51.512;-0.382;2023-12-20T09:50:10;9.30;99.90
30037;DHT22;36325;51.512;-0.382;2023-12-20T09:52:40;9.30;99.90
30037;DHT22;36325;51.512;-0.382;2023-12-20T09:55:08;9.40;99.90
30037;DHT22;36325;51.512;-0.382;2023-12-20T09:57:36;9.40;99.90
30037;DHT22;36325;51.512;-0.382;2023-12-20T10:00:04;9.40;99.90
30037;DHT22;36325;51.512;-0.382;2023-12-20T10:02:38;9.40;99.90
30037;DHT22;36325;51.512;-0.382;2023-12-20T10:05:06;9.40;99.90
30037;DHT22;36325;51.512;-0.382;2023-12-20T10:07:35;9.40;99.90
30037;DHT22;36325;51.512;-0.382;2023-12-20T10:10:02;9.40;99.90
30037;DHT22;36325;51.512;-0.382;2023-12-20T10:12:30;9.40;99.90
30037;DHT22;36325;51.512;-0.382;2023-12-20T10:14:58;9.40;99.90
30037;DHT22;36325;51.512;-0.382;2023-12-20T10:17:25;9.40;99.90
30037;DHT22;36325;51.512;-0.382;2023-12-20T10:19:56;9.40;99.90
30037;DHT22;36325;51.512;-0.382;2023-12-20T10:22:24;9.40;99.90
30037;DHT22;36325;51.512;-0.382;2023-12-20T10:24:52;9.40;99.90
30037;DHT22;36325;51.512;-0.382;2023-12-20T10:27:19;9.40;99.90
30037;DHT22;36325;51.512;-0.382;2023-12-20T10:29:47;9.70;99.90
30037;DHT22;36325;51.512;-0.382;2023-12-20T10:32:25;9.50;99.90
30037;DHT22;36325;51.512;-0.382;2023-12-20T10:34:54;9.50;99.90
30037;DHT22;36325;51.512;-0.382;2023-12-20T10:37:21;9.60;99.90
30037;DHT22;36325;51.512;-0.382;2023-12-20T10:39:53;9.60;99.90
30037;DHT22;36325;51.512;-0.382;2023-12-20T10:42:25;9.60;99.90
30037;DHT22;36325;51.512;-0.382;2023-12-20T10:44:52;9.70;99.90
30037;DHT22;36325;51.512;-0.382;2023-12-20T10:47:23;9.70;99.90
30037;DHT22;36325;51.512;-0.382;2023-12-20T10:49:52;9.70;99.90
30037;DHT22;36325;51.512;-0.382;2023-12-20T10:52:19;9.70;99.90
30037;DHT22;36325;51.512;-0.382;2023-12-20T10:54:47;9.70;99.90
30037;DHT22;36325;51.512;-0.382;2023-12-20T10:57:14;9.80;99.90
30037;DHT22;36325;51.512;-0.382;2023-12-20T10:59:44;9.80;99.90
30037;DHT22;36325;51.512;-0.382;2023-12-20T11:02:17;9.80;99.90
30037;DHT22;36325;51.512;-0.382;2023-12-20T11:07:19;9.80;99.90
30037;DHT22;36325;51.512;-0.382;2023-12-20T11:09:49;9.80;99.90
30037;DHT22;36325;51.512;-0.382;2023-12-20T11:12:34;9.80;99.90
30037;DHT22;36325;51.512;-0.382;2023-12-20T11:15:02;9.80;99.90
30037;DHT22;36325;51.512;-0.382;2023-12-20T11:17:31;9.80;99.90
30037;DHT22;36325;51.512;-0.382;2023-12-20T11:22:30;9.80;99.90
30037;DHT22;36325;51.512;-0.382;2023-12-20T11:25:05;9.80;99.90
30037;DHT22;36325;51.512;-0.382;2023-12-20T11:27:36;9.90;99.90
30037;DHT22;36325;51.512;-0.382;2023-12-20T11:30:04;9.90;99.90
30037;DHT22;36325;51.512;-0.382;2023-12-20T11:32:34;9.90;99.90
30037;DHT22;36325;51.512;-0.382;2023-12-20T11:37:35;10.00;99.90
30037;DHT22;36325;51.512;-0.382;2023-12-20T11:40:05;10.00;99.90
30037;DHT22;36325;51.512;-0.382;2023-12-20T11:42:40;10.10;99.90
30037;DHT22;36325;51.512;-0.382;2023-12-20T11:45:19;10.10;99.90
30037;DHT22;36325;51.512;-0.382;2023-12-20T11:47:49;10.10;99.90
30037;DHT22;36325;51.512;-0.382;2023-12-20T11:50:22;10.10;99.90
30037;DHT22;36325;51.512;-0.382;2023-12-20T11:52:51;10.20;99.90
30037;DHT22;36325;51.512;-0.382;2023-12-20T11:55:19;10.20;99.90
30037;DHT22;36325;51.512;-0.382;2023-12-20T11:57:49;10.30;99.90
30037;DHT22;36325;51.512;-0.382;2023-12-20T12:00:17;10.30;99.90
30037;DHT22;36325;51.512;-0.382;2023-12-20T12:02:55;10.70;99.90
30037;DHT22;36325;51.512;-0.382;2023-12-20T12:05:23;10.30;99.90
30037;DHT22;36325;51.512;-0.382;2023-12-20T12:07:51;10.30;99.90
30037;DHT22;36325;51.512;-0.382;2023-12-20T12:10:18;10.60;99.90
30037;DHT22;36325;51.512;-0.382;2023-12-20T12:12:45;10.40;99.90
30037;DHT22;36325;51.512;-0.382;2023-12-20T12:15:12;10.80;99.90
30037;DHT22;36325;51.512;-0.382;2023-12-20T12:17:40;11.70;99.90
30037;DHT22;36325;51.512;-0.382;2023-12-20T12:20:07;13.10;99.90
30037;DHT22;36325;51.512;-0.382;2023-12-20T12:22:36;13.50;99.90
30037;DHT22;36325;51.512;-0.382;2023-12-20T12:25:11;14.00;99.90
30037;DHT22;36325;51.512;-0.382;2023-12-20T12:27:39;13.80;99.90
30037;DHT22;36325;51.512;-0.382;2023-12-20T12:30:07;13.70;99.90
30037;DHT22;36325;51.512;-0.382;2023-12-20T12:32:36;13.40;99.90
30037;DHT22;36325;51.512;-0.382;2023-12-20T12:35:06;12.90;99.90
30037;DHT22;36325;51.512;-0.382;2023-12-20T12:37:34;13.20;99.90
30037;DHT22;36325;51.512;-0.382;2023-12-20T12:40:03;11.30;99.90
30037;DHT22;36325;51.512;-0.382;2023-12-20T12:42:31;13.80;99.90
30037;DHT22;36325;51.512;-0.382;2023-12-20T12:44:59;13.30;99.90
30037;DHT22;36325;51.512;-0.382;2023-12-20T12:47:26;12.80;99.90
30037;DHT22;36325;51.512;-0.382;2023-12-20T12:49:53;12.40;99.90
30037;DHT22;36325;51.512;-0.382;2023-12-20T12:52:20;12.10;99.90
30037;DHT22;36325;51.512;-0.382;2023-12-20T12:54:47;11.90;99.90
30037;DHT22;36325;51.512;-0.382;2023-12-20T12:57:15;11.70;99.90
30037;DHT22;36325;51.512;-0.382;2023-12-20T12:59:43;11.60;99.90
30037;DHT22;36325;51.512;-0.382;2023-12-20T13:02:14;11.60;99.90
30037;DHT22;36325;51.512;-0.382;2023-12-20T13:04:41;11.50;99.90
30037;DHT22;36325;51.512;-0.382;2023-12-20T13:07:09;11.50;99.90
30037;DHT22;36325;51.512;-0.382;2023-12-20T13:09:39;11.60;99.90
30037;DHT22;36325;51.512;-0.382;2023-12-20T13:12:07;11.70;99.90
30037;DHT22;36325;51.512;-0.382;2023-12-20T13:14:35;11.90;99.90
30037;DHT22;36325;51.512;-0.382;2023-12-20T13:17:04;11.90;99.90
30037;DHT22;36325;51.512;-0.382;2023-12-20T13:19:31;12.00;99.90
30037;DHT22;36325;51.512;-0.382;2023-12-20T13:21:58;12.10;99.90
30037;DHT22;36325;51.512;-0.382;2023-12-20T13:24:27;11.90;99.90
30037;DHT22;36325;51.512;-0.382;2023-12-20T13:26:56;11.90;99.90
30037;DHT22;36325;51.512;-0.382;2023-12-20T13:29:27;11.70;99.90
30037;DHT22;36325;51.512;-0.382;2023-12-20T13:31:55;11.70;99.90
30037;DHT22;36325;51.512;-0.382;2023-12-20T13:34:22;11.70;99.90
30037;DHT22;36325;51.512;-0.382;2023-12-20T13:36:57;11.60;99.90
30037;DHT22;36325;51.512;-0.382;2023-12-20T13:39:24;11.60;99.90
30037;DHT22;36325;51.512;-0.382;2023-12-20T13:41:52;11.50;99.90
30037;DHT22;36325;51.512;-0.382;2023-12-20T13:44:20;11.40;99.90
30037;DHT22;36325;51.512;-0.382;2023-12-20T13:46:47;11.50;99.90
30037;DHT22;36325;51.512;-0.382;2023-12-20T13:49:17;12.00;99.90
30037;DHT22;36325;51.512;-0.382;2023-12-20T13:51:44;12.50;99.90
30037;DHT22;36325;51.512;-0.382;2023-12-20T13:54:11;12.90;99.90
30037;DHT22;36325;51.512;-0.382;2023-12-20T13:56:39;13.30;99.90
30037;DHT22;36325;51.512;-0.382;2023-12-20T13:59:12;13.60;99.90
30037;DHT22;36325;51.512;-0.382;2023-12-20T14:01:40;13.30;99.90
30037;DHT22;36325;51.512;-0.382;2023-12-20T14:04:08;13.00;99.90
30037;DHT22;36325;51.512;-0.382;2023-12-20T14:06:36;12.60;99.90
30037;DHT22;36325;51.512;-0.382;2023-12-20T14:09:04;12.30;99.90
30037;DHT22;36325;51.512;-0.382;2023-12-20T14:11:32;12.00;99.90
30037;DHT22;36325;51.512;-0.382;2023-12-20T14:14:02;11.80;99.90
30037;DHT22;36325;51.512;-0.382;2023-12-20T14:16:29;11.80;99.90
30037;DHT22;36325;51.512;-0.382;2023-12-20T14:18:56;11.80;99.90
30037;DHT22;36325;51.512;-0.382;2023-12-20T14:21:25;11.90;99.90
30037;DHT22;36325;51.512;-0.382;2023-12-20T14:23:52;11.90;99.90
30037;DHT22;36325;51.512;-0.382;2023-12-20T14:26:19;11.80;99.90
30037;DHT22;36325;51.512;-0.382;2023-12-20T14:28:47;11.70;99.90
30037;DHT22;36325;51.512;-0.382;2023-12-20T14:31:14;11.60;99.90
30037;DHT22;36325;51.512;-0.382;2023-12-20T14:33:42;11.50;99.90
30037;DHT22;36325;51.512;-0.382;2023-12-20T14:36:09;11.40;99.90
30037;DHT22;36325;51.512;-0.382;2023-12-20T14:38:36;11.40;99.90
30037;DHT22;36325;51.512;-0.382;2023-12-20T14:41:04;11.30;99.90
30037;DHT22;36325;51.512;-0.382;2023-12-20T14:43:34;11.30;99.90
30037;DHT22;36325;51.512;-0.382;2023-12-20T14:46:01;11.30;99.90
30037;DHT22;36325;51.512;-0.382;2023-12-20T14:48:29;11.30;99.90
30037;DHT22;36325;51.512;-0.382;2023-12-20T14:50:56;11.20;99.90
30037;DHT22;36325;51.512;-0.382;2023-12-20T14:53:24;11.20;99.90
30037;DHT22;36325;51.512;-0.382;2023-12-20T14:55:52;11.20;99.90
30037;DHT22;36325;51.512;-0.382;2023-12-20T14:58:19;11.20;99.90
30037;DHT22;36325;51.512;-0.382;2023-12-20T15:00:47;11.20;99.90
30037;DHT22;36325;51.512;-0.382;2023-12-20T15:03:14;11.20;99.90
30037;DHT22;36325;51.512;-0.382;2023-12-20T15:05:43;11.20;99.90
30037;DHT22;36325;51.512;-0.382;2023-12-20T15:08:10;11.20;99.90
30037;DHT22;36325;51.512;-0.382;2023-12-20T15:10:38;11.20;99.90
30037;DHT22;36325;51.512;-0.382;2023-12-20T15:13:05;11.20;99.90
30037;DHT22;36325;51.512;-0.382;2023-12-20T15:15:33;11.20;99.90
30037;DHT22;36325;51.512;-0.382;2023-12-20T15:18:00;11.20;99.90
30037;DHT22;36325;51.512;-0.382;2023-12-20T15:20:31;11.10;99.90
30037;DHT22;36325;51.512;-0.382;2023-12-20T15:23:00;11.10;99.90
30037;DHT22;36325;51.512;-0.382;2023-12-20T15:25:33;11.10;99.90
30037;DHT22;36325;51.512;-0.382;2023-12-20T15:28:01;8.30;99.90
30037;DHT22;36325;51.512;-0.382;2023-12-20T15:30:30;11.10;99.90
30037;DHT22;36325;51.512;-0.382;2023-12-20T15:32:57;11.10;99.90
30037;DHT22;36325;51.512;-0.382;2023-12-20T15:35:25;11.20;99.90
30037;DHT22;36325;51.512;-0.382;2023-12-20T15:37:52;11.10;99.90
30037;DHT22;36325;51.512;-0.382;2023-12-20T15:40:20;11.10;99.90
30037;DHT22;36325;51.512;-0.382;2023-12-20T15:42:49;11.10;99.90